KSPS/SPS METAR and TAF weather

Enter ICAO airport designator
Station Type Date Time Source
KSPS METAR 2019/08/22 08:52 UTC NOAA

KSPS 220852Z AUTO 18010KT 10SM FEW110 28/19 A2989 RMK AO2 SLP104 T02780189 56008


Station Type Date Time Source
KSPS Decoded METAR 2019/08/22 08:52 UTC NOAA

Station name not available
Aug 22, 2019 - 04:52 AM EDT / 2019.08.22 0852 UTC
Wind: from the S (180 degrees) at 12 MPH (10 KT):0
Visibility: 10 mile(s):0
Sky conditions: mostly clear
Temperature: 82.0 F (27.8 C)
Dew Point: 66.0 F (18.9 C)
Relative Humidity: 58%
Pressure (altimeter): 29.89 in. Hg (1012 hPa)
Pressure tendency: 0.02 inches (0.8 hPa) lower than three hours ago
ob: KSPS 220852Z AUTO 18010KT 10SM FEW110 28/19 A2989 RMK AO2 SLP104 T02780189 56008
cycle: 9

Station Type Date Time Source
KSPS TAF 2019/08/22 06:28 UTC NOAA

TAF KSPS 220525Z 2206/2306 16010KT P6SM FEW250
FM221400 20008KT P6SM SCT080 SCT250
FM222300 16010KT P6SM SCT060 BKN250 PROB30 2300/2306 5SM -TSRA BKN050CB BKN150

Example: see airport list